Time;durP1;ratioP1;P1;durP2;ratioP2;P2;SDS_P1;SDS_P2;PMS_P1;PMS_P2;Temp;Humidity;BMP_temperature;BMP_pressure;BME280_temperature;BME280_humidity;BME280_pressure;Samples;Min_cycle;Max_cycle;Signal;HPM_P1;HPM_P2
2021/07/31 00:00:33;;;;;;;3.73;1.77;;;17.30;99.90;;;;;;5108275;27;20845;-74
2021/07/31 00:03:01;;;;;;;2.73;1.73;;;17.20;99.90;;;;;;5105105;27;20473;-76
2021/07/31 00:05:28;;;;;;;3.30;1.80;;;17.20;99.90;;;;;;5115968;28;20413;-76
2021/07/31 00:07:55;;;;;;;3.93;1.80;;;17.20;99.90;;;;;;5111996;28;20441;-75
2021/07/31 00:10:22;;;;;;;3.70;1.90;;;17.20;99.90;;;;;;5101627;27;22714;-76
2021/07/31 00:12:49;;;;;;;5.37;1.70;;;17.20;99.90;;;;;;5104428;27;20467;-74
2021/07/31 00:15:16;;;;;;;2.73;1.70;;;17.10;99.90;;;;;;5113292;28;20808;-76
2021/07/31 00:17:42;;;;;;;2.20;1.60;;;17.10;99.90;;;;;;5111930;28;20453;-75
2021/07/31 00:20:11;;;;;;;2.47;1.50;;;17.10;99.90;;;;;;5114404;28;20451;-75
2021/07/31 00:22:38;;;;;;;2.90;1.60;;;17.10;99.90;;;;;;5111825;28;20465;-75
2021/07/31 00:25:06;;;;;;;2.50;1.87;;;17.00;99.90;;;;;;5112801;27;20421;-75
2021/07/31 00:27:33;;;;;;;2.40;1.57;;;16.90;99.90;;;;;;5115461;28;20905;-75
2021/07/31 00:30:00;;;;;;;2.87;2.03;;;16.90;99.90;;;;;;5110147;28;20450;-75
2021/07/31 00:32:27;;;;;;;2.67;2.07;;;16.90;99.90;;;;;;5110167;28;20448;-74
2021/07/31 00:34:54;;;;;;;3.37;1.70;;;16.90;99.90;;;;;;5109843;28;20431;-75
2021/07/31 00:37:22;;;;;;;2.97;1.70;;;16.90;99.90;;;;;;5102120;27;20475;-74
2021/07/31 00:39:49;;;;;;;4.37;1.80;;;16.90;99.90;;;;;;5113308;28;20455;-75
2021/07/31 00:42:16;;;;;;;4.10;1.60;;;16.80;99.90;;;;;;5113398;28;20476;-74
2021/07/31 00:44:42;;;;;;;1.70;1.50;;;16.80;99.90;;;;;;5111376;27;20460;-75
2021/07/31 00:47:09;;;;;;;2.20;2.00;;;16.80;99.90;;;;;;5109209;28;20434;-76
2021/07/31 00:49:37;;;;;;;1.90;1.70;;;16.70;99.90;;;;;;5103215;27;20436;-75
2021/07/31 00:52:06;;;;;;;3.40;1.90;;;16.70;99.90;;;;;;5112169;28;21027;-74
2021/07/31 00:54:35;;;;;;;5.20;1.67;;;16.70;99.90;;;;;;5086462;28;20457;-76
2021/07/31 00:57:05;;;;;;;2.60;1.53;;;16.70;99.90;;;;;;5099883;27;20447;-76
2021/07/31 00:59:31;;;;;;;3.10;2.33;;;16.60;99.90;;;;;;5085937;28;20490;-76
2021/07/31 01:01:58;;;;;;;2.23;1.53;;;16.60;99.90;;;;;;5108547;28;20472;-75
2021/07/31 01:04:25;;;;;;;2.20;1.60;;;16.60;99.90;;;;;;5108962;28;20829;-75
2021/07/31 01:06:52;;;;;;;4.60;1.80;;;16.60;99.90;;;;;;5112227;28;20459;-76
2021/07/31 01:09:19;;;;;;;1.67;1.57;;;16.60;99.90;;;;;;5103528;28;20448;-75
2021/07/31 01:11:47;;;;;;;2.17;1.40;;;16.50;99.90;;;;;;5106636;27;20478;-76
2021/07/31 01:14:14;;;;;;;5.13;2.03;;;16.50;99.90;;;;;;5103193;28;20788;-76
2021/07/31 01:16:41;;;;;;;2.53;1.90;;;16.50;99.90;;;;;;5108546;28;20397;-75
2021/07/31 01:19:08;;;;;;;2.00;1.47;;;16.40;99.90;;;;;;5105525;28;20443;-76
2021/07/31 01:21:40;;;;;;;3.00;1.73;;;16.40;99.90;;;;;;5104066;27;20981;-75
2021/07/31 01:24:08;;;;;;;3.90;1.70;;;16.40;99.90;;;;;;5112044;28;20410;-77
2021/07/31 01:26:38;;;;;;;3.33;2.03;;;16.40;99.90;;;;;;5076870;28;20421;-74
2021/07/31 01:29:06;;;;;;;6.53;1.93;;;16.40;99.90;;;;;;5118878;27;20439;-75
2021/07/31 01:31:34;;;;;;;2.27;1.77;;;16.30;99.90;;;;;;5108393;28;20976;-76
2021/07/31 01:34:01;;;;;;;5.87;2.50;;;16.30;99.90;;;;;;5086213;28;20429;-75
2021/07/31 01:36:28;;;;;;;3.80;1.67;;;16.30;99.90;;;;;;5111595;28;20435;-75
2021/07/31 01:38:56;;;;;;;3.10;1.83;;;16.30;99.90;;;;;;5111057;28;20443;-75
2021/07/31 01:41:24;;;;;;;5.20;2.20;;;16.30;99.90;;;;;;5104584;27;20475;-76
2021/07/31 01:43:51;;;;;;;4.37;2.07;;;16.20;99.90;;;;;;5090442;28;20413;-75
2021/07/31 01:46:18;;;;;;;5.33;2.57;;;16.20;99.90;;;;;;5088224;28;20555;-75
2021/07/31 01:48:45;;;;;;;5.20;2.53;;;16.20;99.90;;;;;;5111568;28;20868;-76
2021/07/31 01:51:12;;;;;;;2.33;1.70;;;16.20;99.90;;;;;;5110968;28;20460;-76
2021/07/31 01:53:39;;;;;;;2.47;1.90;;;16.20;99.90;;;;;;5105762;28;20864;-75
2021/07/31 01:56:08;;;;;;;5.47;2.10;;;16.20;99.90;;;;;;5074132;28;20454;-76
2021/07/31 01:58:35;;;;;;;3.10;2.23;;;16.20;99.90;;;;;;5107609;28;20796;-75
2021/07/31 02:01:02;;;;;;;3.70;2.03;;;16.20;99.90;;;;;;5110219;28;20437;-74
2021/07/31 02:03:29;;;;;;;4.00;2.00;;;16.20;99.90;;;;;;5102645;28;20482;-75
2021/07/31 02:05:56;;;;;;;4.50;2.53;;;16.30;99.90;;;;;;5131772;28;20468;-75
2021/07/31 02:08:23;;;;;;;2.33;2.13;;;16.20;99.90;;;;;;5110400;28;20421;-76
2021/07/31 02:10:51;;;;;;;3.77;1.90;;;16.20;99.90;;;;;;5095912;28;20445;-74
2021/07/31 02:13:19;;;;;;;4.20;2.00;;;16.30;99.90;;;;;;5092198;28;20508;-75
2021/07/31 02:16:06;;;;;;;2.43;2.00;;;16.30;99.90;;;;;;5107676;28;20401;-76
2021/07/31 02:18:33;;;;;;;3.03;2.10;;;16.30;99.90;;;;;;5059926;28;20426;-75
2021/07/31 02:21:00;;;;;;;2.17;1.70;;;16.20;99.90;;;;;;5058189;28;20985;-74
2021/07/31 02:23:27;;;;;;;2.40;1.87;;;16.20;99.90;;;;;;5064517;28;20450;-76
2021/07/31 02:25:53;;;;;;;5.77;2.37;;;16.20;99.90;;;;;;5068030;28;20456;-74
2021/07/31 02:28:22;;;;;;;4.33;2.27;;;16.20;99.90;;;;;;5062395;28;20432;-73
2021/07/31 02:30:49;;;;;;;3.17;1.80;;;16.20;99.90;;;;;;5054455;28;20444;-75
2021/07/31 02:33:15;;;;;;;3.00;1.90;;;16.20;99.90;;;;;;5053534;28;20472;-74
2021/07/31 02:35:42;;;;;;;3.60;1.90;;;16.20;99.90;;;;;;5071986;28;20489;-75
2021/07/31 02:38:09;;;;;;;1.90;1.80;;;16.20;99.90;;;;;;5111488;28;20439;-75
2021/07/31 02:40:36;;;;;;;4.07;1.70;;;16.20;99.90;;;;;;5100717;28;20426;-75
2021/07/31 02:43:03;;;;;;;2.83;1.70;;;16.20;99.90;;;;;;5124695;27;20479;-76
2021/07/31 02:47:56;;;;;;;9.53;1.83;;;16.20;99.90;;;;;;5111712;28;20457;-76
2021/07/31 02:50:23;;;;;;;2.87;1.80;;;16.20;99.90;;;;;;5104969;28;20197;-75
2021/07/31 02:52:51;;;;;;;2.83;1.97;;;16.20;99.90;;;;;;5088931;28;20433;-75
2021/07/31 02:55:18;;;;;;;2.43;1.67;;;16.20;99.90;;;;;;5109163;28;20455;-75
2021/07/31 02:57:44;;;;;;;2.07;1.83;;;16.20;99.90;;;;;;5111331;28;20414;-74
2021/07/31 03:00:12;;;;;;;2.53;1.83;;;16.20;99.90;;;;;;5105702;27;20426;-75
2021/07/31 03:02:39;;;;;;;2.83;1.77;;;16.20;99.90;;;;;;5104966;28;20456;-75
2021/07/31 03:05:08;;;;;;;5.53;2.00;;;16.20;99.90;;;;;;5106243;28;20451;-75
2021/07/31 03:07:36;;;;;;;3.37;2.50;;;16.20;99.90;;;;;;5093312;28;20417;-75
2021/07/31 03:10:03;;;;;;;2.33;1.70;;;16.20;99.90;;;;;;5106702;27;20835;-75
2021/07/31 03:12:31;;;;;;;3.23;2.03;;;16.20;99.90;;;;;;5113237;28;20486;-75
2021/07/31 03:15:01;;;;;;;2.77;1.83;;;16.20;99.90;;;;;;5093074;27;20427;-75
2021/07/31 03:17:28;;;;;;;2.73;1.70;;;16.30;99.90;;;;;;5096441;28;20440;-75
2021/07/31 03:19:55;;;;;;;2.83;1.87;;;16.20;99.90;;;;;;5096683;28;20406;-76
2021/07/31 03:22:23;;;;;;;3.37;1.97;;;16.20;99.90;;;;;;5104570;27;20475;-75
2021/07/31 03:24:50;;;;;;;3.20;1.80;;;16.30;99.90;;;;;;5100082;27;20432;-74
2021/07/31 03:27:17;;;;;;;2.57;2.00;;;16.30;99.90;;;;;;5111442;28;20449;-76
2021/07/31 03:29:43;;;;;;;2.80;1.90;;;16.30;99.90;;;;;;5114585;28;20417;-75
2021/07/31 03:32:10;;;;;;;2.73;2.30;;;16.30;99.90;;;;;;5105695;28;20853;-75
2021/07/31 03:34:37;;;;;;;5.40;2.07;;;16.30;99.90;;;;;;5114435;28;20416;-75
2021/07/31 03:37:04;;;;;;;2.00;1.80;;;16.30;99.90;;;;;;5115510;28;20433;-75
2021/07/31 03:39:32;;;;;;;5.40;2.13;;;16.30;99.90;;;;;;5104333;27;20461;-75
2021/07/31 03:41:59;;;;;;;3.07;2.13;;;16.30;99.90;;;;;;5127854;27;20475;-76
2021/07/31 03:44:26;;;;;;;3.43;1.90;;;16.30;99.90;;;;;;5136814;27;20908;-75
2021/07/31 03:46:53;;;;;;;3.20;2.43;;;16.30;99.90;;;;;;5106620;27;20462;-74
2021/07/31 03:51:45;;;;;;;2.57;2.20;;;16.40;99.90;;;;;;5112106;28;20975;-75
2021/07/31 03:54:12;;;;;;;3.87;2.00;;;16.40;99.90;;;;;;5107368;27;20200;-75
2021/07/31 03:56:40;;;;;;;2.10;1.90;;;16.40;99.90;;;;;;5134037;27;20423;-75
2021/07/31 03:59:07;;;;;;;4.70;2.27;;;16.40;99.90;;;;;;5117993;27;20428;-74
2021/07/31 04:01:34;;;;;;;3.67;2.30;;;16.50;99.90;;;;;;5107964;27;20458;-75
2021/07/31 04:04:01;;;;;;;2.17;1.70;;;16.50;99.90;;;;;;5109444;28;20425;-74
2021/07/31 04:06:28;;;;;;;4.23;2.43;;;16.50;99.90;;;;;;5113846;28;20413;-75
2021/07/31 04:08:55;;;;;;;3.90;1.93;;;16.50;99.90;;;;;;5113501;28;20410;-75
2021/07/31 04:11:21;;;;;;;3.70;2.13;;;16.50;99.90;;;;;;5106458;27;20855;-75
2021/07/31 04:13:50;;;;;;;2.53;2.07;;;16.50;99.90;;;;;;5108021;27;20467;-75
2021/07/31 04:16:16;;;;;;;4.10;2.53;;;16.50;99.90;;;;;;5114431;27;20808;-75
2021/07/31 04:18:43;;;;;;;2.13;1.90;;;16.50;99.90;;;;;;5120177;27;20431;-76
2021/07/31 04:21:10;;;;;;;2.93;2.13;;;16.60;99.90;;;;;;5114783;28;20414;-75
2021/07/31 04:23:37;;;;;;;3.00;2.10;;;16.60;99.90;;;;;;5107557;28;20800;-75
2021/07/31 04:26:13;;;;;;;4.67;2.27;;;16.60;99.90;;;;;;5100285;27;20433;-75
2021/07/31 04:28:40;;;;;;;2.30;1.93;;;16.60;99.90;;;;;;5113414;28;20443;-76
2021/07/31 04:31:09;;;;;;;3.13;2.20;;;16.60;99.90;;;;;;5113052;28;20413;-75
2021/07/31 04:33:36;;;;;;;3.57;2.40;;;16.60;99.90;;;;;;5084150;27;20784;-76
2021/07/31 04:36:03;;;;;;;3.60;2.30;;;16.70;99.90;;;;;;5125430;27;20454;-75
2021/07/31 04:38:31;;;;;;;4.33;2.20;;;16.70;99.90;;;;;;5135969;27;20432;-74
2021/07/31 04:40:58;;;;;;;4.63;2.50;;;16.70;99.90;;;;;;5120736;27;20451;-74
2021/07/31 04:43:25;;;;;;;2.43;2.20;;;16.70;99.90;;;;;;5096377;28;20441;-74
2021/07/31 04:45:52;;;;;;;3.33;2.13;;;16.70;99.90;;;;;;5087201;28;20432;-74
2021/07/31 04:48:20;;;;;;;4.00;2.80;;;16.80;99.90;;;;;;5107010;28;20905;-75
2021/07/31 04:50:54;;;;;;;5.53;2.70;;;16.70;99.90;;;;;;5112836;28;20440;-74
2021/07/31 04:53:21;;;;;;;3.70;2.50;;;16.70;99.90;;;;;;5103878;27;20492;-75
2021/07/31 04:55:48;;;;;;;2.30;1.93;;;16.70;99.90;;;;;;5112605;28;20415;-74
2021/07/31 04:58:15;;;;;;;4.17;2.17;;;16.70;99.90;;;;;;5108631;28;20437;-75
2021/07/31 05:00:41;;;;;;;3.90;2.23;;;16.80;99.90;;;;;;5100770;27;20454;-76
2021/07/31 05:03:08;;;;;;;4.27;2.90;;;16.70;99.90;;;;;;5111034;28;20433;-74
2021/07/31 05:05:37;;;;;;;3.80;2.37;;;16.80;99.90;;;;;;5112208;28;20438;-75
2021/07/31 05:08:04;;;;;;;2.63;1.93;;;16.80;99.90;;;;;;5105633;27;20460;-74
2021/07/31 05:10:31;;;;;;;3.60;2.10;;;16.90;99.90;;;;;;5110545;28;20899;-74
2021/07/31 05:12:58;;;;;;;3.87;2.30;;;16.90;99.90;;;;;;5105514;28;20463;-75
2021/07/31 05:15:25;;;;;;;7.00;2.20;;;16.90;99.90;;;;;;5107230;28;20436;-76
2021/07/31 05:17:52;;;;;;;4.03;2.53;;;17.00;99.90;;;;;;5117796;27;20456;-74
2021/07/31 05:20:19;;;;;;;4.10;2.07;;;17.10;99.90;;;;;;5121903;27;20818;-74
2021/07/31 05:22:47;;;;;;;5.03;2.33;;;17.10;99.90;;;;;;5111303;28;20447;-75
2021/07/31 05:25:14;;;;;;;4.07;2.20;;;17.10;99.90;;;;;;5110017;28;20416;-74
2021/07/31 05:27:40;;;;;;;4.70;2.87;;;17.20;99.90;;;;;;5094586;27;20453;-74
2021/07/31 05:30:08;;;;;;;3.63;2.43;;;17.20;99.90;;;;;;5105452;27;20465;-75
2021/07/31 05:32:36;;;;;;;3.67;2.07;;;17.30;99.90;;;;;;5110865;28;20494;-76
2021/07/31 05:35:03;;;;;;;4.67;2.33;;;17.40;99.90;;;;;;5107779;28;20499;-76
2021/07/31 05:37:31;;;;;;;4.13;2.33;;;17.40;99.90;;;;;;5087230;28;20489;-76
2021/07/31 05:40:00;;;;;;;3.83;2.13;;;17.50;99.90;;;;;;5080806;28;20487;-75
2021/07/31 05:42:28;;;;;;;2.90;2.00;;;17.50;99.90;;;;;;5105730;28;20489;-75
2021/07/31 05:44:57;;;;;;;3.70;2.37;;;17.50;99.90;;;;;;5091105;28;20417;-76
2021/07/31 05:47:24;;;;;;;2.20;2.00;;;17.60;99.90;;;;;;5092364;28;20464;-75
2021/07/31 05:49:51;;;;;;;3.57;2.27;;;17.60;99.90;;;;;;5101095;27;20990;-75
2021/07/31 05:52:20;;;;;;;3.70;2.90;;;17.60;99.90;;;;;;5109183;27;20487;-74
2021/07/31 05:54:47;;;;;;;3.93;2.13;;;17.50;99.90;;;;;;5109045;28;20496;-75
2021/07/31 05:57:15;;;;;;;6.53;2.40;;;17.50;99.90;;;;;;5083916;28;21033;-74
2021/07/31 05:59:42;;;;;;;4.27;2.30;;;17.60;99.90;;;;;;5109837;28;20544;-75
2021/07/31 06:02:09;;;;;;;4.13;2.30;;;17.60;99.90;;;;;;5109124;28;20477;-74
2021/07/31 06:04:37;;;;;;;3.97;2.43;;;17.60;99.90;;;;;;5093779;28;20519;-75
2021/07/31 06:07:06;;;;;;;3.60;2.40;;;17.60;99.90;;;;;;5097079;28;20461;-75
2021/07/31 06:09:34;;;;;;;3.10;2.43;;;17.70;99.90;;;;;;5077834;28;20454;-75
2021/07/31 06:12:00;;;;;;;3.47;2.10;;;17.70;99.90;;;;;;5107793;28;21035;-79
2021/07/31 06:14:29;;;;;;;4.23;2.67;;;17.70;99.90;;;;;;5088127;28;20447;-81
2021/07/31 06:16:56;;;;;;;2.40;2.10;;;17.70;99.90;;;;;;5099865;28;20442;-74
2021/07/31 06:19:23;;;;;;;3.13;2.00;;;17.70;99.90;;;;;;5099665;28;20466;-75
2021/07/31 06:21:50;;;;;;;4.07;2.10;;;17.70;99.90;;;;;;5106010;28;20452;-74
2021/07/31 06:24:17;;;;;;;6.80;2.13;;;17.80;99.90;;;;;;5105330;28;20504;-74
2021/07/31 06:26:44;;;;;;;2.23;1.90;;;17.90;99.90;;;;;;5112245;28;20434;-75
2021/07/31 06:29:11;;;;;;;2.90;2.17;;;18.10;99.90;;;;;;5109602;28;20455;-74
2021/07/31 06:31:39;;;;;;;3.37;2.13;;;18.20;99.90;;;;;;5111130;28;20802;-75
2021/07/31 06:34:06;;;;;;;2.40;1.90;;;18.40;99.90;;;;;;5109183;28;20470;-75
2021/07/31 06:36:34;;;;;;;2.50;1.67;;;18.50;99.90;;;;;;5104398;28;20453;-77
2021/07/31 06:39:01;;;;;;;5.10;2.47;;;18.70;99.90;;;;;;5097764;28;20952;-75
2021/07/31 06:41:28;;;;;;;5.67;2.30;;;18.90;99.90;;;;;;5095480;28;21035;-74
2021/07/31 06:43:55;;;;;;;3.17;2.00;;;19.10;99.90;;;;;;5113459;28;20445;-74
2021/07/31 06:46:24;;;;;;;2.13;1.73;;;19.20;99.90;;;;;;5112818;28;20915;-77
2021/07/31 06:48:54;;;;;;;3.23;1.90;;;19.40;99.90;;;;;;5107275;27;20773;-74
2021/07/31 06:51:22;;;;;;;3.40;2.10;;;19.60;99.90;;;;;;5117292;28;20438;-74
2021/07/31 06:53:50;;;;;;;4.50;1.70;;;19.80;99.90;;;;;;5111765;27;20478;-75
2021/07/31 06:56:17;;;;;;;2.77;2.03;;;19.90;99.90;;;;;;5129952;27;20454;-74
2021/07/31 06:58:44;;;;;;;2.83;1.63;;;20.10;99.90;;;;;;5092454;28;20930;-75
2021/07/31 07:01:12;;;;;;;2.60;1.60;;;20.20;99.90;;;;;;5067150;27;20457;-74
2021/07/31 07:03:41;;;;;;;4.40;2.17;;;20.30;99.90;;;;;;5095508;28;20434;-75
2021/07/31 07:06:10;;;;;;;3.63;2.37;;;20.30;99.90;;;;;;5079454;28;20943;-79
2021/07/31 07:08:37;;;;;;;4.33;2.40;;;20.30;99.90;;;;;;5108913;28;20454;-77
2021/07/31 07:11:05;;;;;;;5.00;2.10;;;20.40;99.90;;;;;;5098363;28;20454;-80
2021/07/31 07:13:32;;;;;;;2.13;1.93;;;20.30;99.90;;;;;;5110982;28;20485;-78
2021/07/31 07:15:59;;;;;;;5.80;2.53;;;20.30;99.90;;;;;;5109972;28;20908;-77
2021/07/31 07:18:26;;;;;;;4.33;2.60;;;20.40;99.90;;;;;;5103558;27;20451;-76
2021/07/31 07:20:52;;;;;;;3.10;2.10;;;20.40;99.90;;;;;;5104326;27;20462;-76
2021/07/31 07:23:21;;;;;;;3.30;2.60;;;20.30;99.90;;;;;;5110023;28;20462;-76
2021/07/31 07:25:48;;;;;;;4.97;1.77;;;20.20;99.90;;;;;;5094023;28;20477;-76
2021/07/31 07:28:14;;;;;;;4.30;3.10;;;20.00;99.90;;;;;;5108018;27;20955;-76
2021/07/31 07:30:41;;;;;;;2.90;1.83;;;19.80;99.90;;;;;;5114947;28;20439;-76
2021/07/31 07:33:08;;;;;;;6.30;2.40;;;19.70;99.90;;;;;;5109462;28;20490;-75
2021/07/31 07:35:35;;;;;;;4.77;2.40;;;19.60;99.90;;;;;;5105274;27;20454;-76
2021/07/31 07:38:02;;;;;;;3.43;1.90;;;19.60;99.90;;;;;;5109589;28;20431;-75
2021/07/31 07:40:30;;;;;;;3.50;2.00;;;19.50;99.90;;;;;;5098412;28;20455;-75
2021/07/31 07:42:57;;;;;;;2.87;2.37;;;19.50;99.90;;;;;;5113372;28;20473;-76
2021/07/31 07:45:24;;;;;;;7.50;2.70;;;19.50;99.90;;;;;;5094208;28;20432;-75
2021/07/31 07:47:51;;;;;;;3.10;1.60;;;19.50;99.90;;;;;;5112853;28;20451;-77
2021/07/31 07:50:18;;;;;;;3.50;1.73;;;19.50;99.90;;;;;;5108935;28;20438;-74
2021/07/31 07:52:45;;;;;;;2.97;2.20;;;19.50;99.90;;;;;;5109032;27;20485;-74
2021/07/31 07:55:12;;;;;;;3.90;2.40;;;19.40;99.90;;;;;;5112365;28;20434;-74
2021/07/31 07:57:41;;;;;;;5.07;2.20;;;19.50;99.90;;;;;;5107280;27;20456;-75
2021/07/31 08:00:09;;;;;;;3.87;2.40;;;19.60;99.90;;;;;;5106437;27;20503;-74
2021/07/31 08:02:35;;;;;;;4.13;2.13;;;19.90;99.90;;;;;;5111360;28;20466;-75
2021/07/31 08:05:03;;;;;;;4.03;1.80;;;20.20;99.90;;;;;;5108920;28;20455;-75
2021/07/31 08:07:29;;;;;;;2.67;1.87;;;20.50;99.90;;;;;;5101015;27;20560;-75
2021/07/31 08:09:56;;;;;;;3.00;2.00;;;20.70;99.90;;;;;;5109709;27;20447;-74
2021/07/31 08:12:23;;;;;;;3.27;1.97;;;21.00;99.90;;;;;;5112667;28;20454;-74
2021/07/31 08:14:52;;;;;;;3.00;1.77;;;21.20;99.90;;;;;;5107168;27;20473;-74
2021/07/31 08:17:19;;;;;;;4.53;1.83;;;21.40;99.90;;;;;;5100423;27;21400;-76
2021/07/31 08:19:46;;;;;;;3.47;1.97;;;21.70;99.90;;;;;;5103998;27;20442;-74
2021/07/31 08:22:13;;;;;;;5.00;1.90;;;21.90;99.90;;;;;;5112047;28;20461;-74
2021/07/31 08:24:40;;;;;;;3.07;1.90;;;22.00;99.90;;;;;;5108374;27;20466;-75
2021/07/31 08:27:07;;;;;;;4.00;2.07;;;22.10;99.90;;;;;;5105145;27;20545;-76
2021/07/31 08:29:34;;;;;;;3.73;2.20;;;22.20;99.90;;;;;;5113340;28;20449;-75
2021/07/31 08:32:02;;;;;;;5.00;2.40;;;22.30;99.90;;;;;;5100071;27;20479;-75
2021/07/31 08:34:29;;;;;;;4.27;2.10;;;22.20;99.90;;;;;;5103012;27;20823;-74
2021/07/31 08:37:01;;;;;;;4.73;2.37;;;22.10;99.90;;;;;;5111585;28;20450;-75
2021/07/31 08:39:28;;;;;;;3.03;1.83;;;22.00;99.90;;;;;;5110870;28;20494;-75
2021/07/31 08:41:55;;;;;;;6.83;1.83;;;21.90;99.90;;;;;;5107151;27;20512;-74
2021/07/31 08:44:22;;;;;;;3.80;2.00;;;21.90;99.90;;;;;;5113084;28;20458;-75
2021/07/31 08:46:51;;;;;;;3.10;2.20;;;21.80;99.90;;;;;;5108423;28;20454;-74
2021/07/31 08:49:20;;;;;;;4.13;1.90;;;21.70;99.90;;;;;;5108238;28;20961;-75
2021/07/31 08:51:48;;;;;;;3.30;1.70;;;21.50;99.90;;;;;;5074374;28;20466;-75
2021/07/31 08:54:15;;;;;;;5.93;2.17;;;21.40;99.90;;;;;;5092296;28;20486;-76
2021/07/31 08:56:43;;;;;;;2.03;1.67;;;21.30;99.90;;;;;;5112547;28;20434;-73
2021/07/31 08:59:10;;;;;;;2.67;1.70;;;21.10;99.90;;;;;;5093291;28;21447;-75
2021/07/31 09:01:37;;;;;;;1.63;1.33;;;21.00;99.90;;;;;;5097326;27;20481;-76
2021/07/31 09:04:13;;;;;;;2.17;1.60;;;20.90;99.90;;;;;;5108997;28;20419;-75
2021/07/31 09:06:42;;;;;;;1.90;1.70;;;20.90;99.90;;;;;;5076864;28;20860;-75
2021/07/31 09:09:09;;;;;;;2.47;1.73;;;20.80;99.90;;;;;;5066555;27;20842;-75
2021/07/31 09:11:53;;;;;;;2.40;1.77;;;20.80;99.90;;;;;;5091878;28;20466;-74
2021/07/31 09:14:20;;;;;;;1.93;1.50;;;20.80;99.90;;;;;;5109709;28;20474;-75
2021/07/31 09:16:47;;;;;;;4.00;1.90;;;20.90;99.90;;;;;;5106683;28;20457;-72
2021/07/31 09:19:15;;;;;;;1.83;1.53;;;20.90;99.90;;;;;;5110383;28;20431;-73
2021/07/31 09:21:44;;;;;;;4.40;2.10;;;20.80;99.90;;;;;;5094514;27;20469;-72
2021/07/31 09:24:18;;;;;;;4.30;2.00;;;20.80;99.90;;;;;;5102423;28;20517;-72
2021/07/31 09:26:48;;;;;;;2.70;1.70;;;20.90;99.90;;;;;;5096179;27;20459;-72
2021/07/31 09:29:19;;;;;;;3.00;2.00;;;20.90;99.90;;;;;;5096443;28;20442;-72
2021/07/31 09:31:54;;;;;;;3.20;1.80;;;20.90;99.90;;;;;;5108091;28;20461;-72
2021/07/31 09:34:27;;;;;;;2.23;1.70;;;20.90;99.90;;;;;;5070832;28;20478;-72
2021/07/31 09:37:07;;;;;;;2.97;2.37;;;20.90;99.90;;;;;;5077181;28;20915;-72
2021/07/31 09:39:51;;;;;;;3.90;2.00;;;20.80;99.90;;;;;;5107954;28;20446;-72
2021/07/31 09:42:28;;;;;;;4.67;2.40;;;20.80;99.90;;;;;;5083355;28;20600;-73
2021/07/31 09:44:56;;;;;;;2.97;2.20;;;20.70;99.90;;;;;;5086417;28;20766;-72
2021/07/31 09:47:25;;;;;;;2.57;2.10;;;20.50;99.90;;;;;;5086497;28;20562;-75
2021/07/31 09:49:53;;;;;;;4.10;2.07;;;20.50;99.90;;;;;;5082077;28;20954;-74
2021/07/31 09:52:23;;;;;;;4.30;2.07;;;20.50;99.90;;;;;;5090275;28;20525;-74
2021/07/31 09:54:50;;;;;;;2.80;1.97;;;20.40;99.90;;;;;;5088988;28;20506;-74
2021/07/31 09:57:17;;;;;;;3.03;2.00;;;20.50;99.90;;;;;;5085656;28;20448;-74
2021/07/31 09:59:45;;;;;;;4.63;1.90;;;20.50;99.90;;;;;;5086022;28;20443;-74
2021/07/31 10:02:16;;;;;;;3.33;2.10;;;20.50;99.90;;;;;;5087850;28;20459;-75
2021/07/31 10:04:44;;;;;;;2.57;1.90;;;20.60;99.90;;;;;;5089809;28;20493;-74
2021/07/31 10:07:11;;;;;;;3.27;1.57;;;20.60;99.90;;;;;;5080626;28;20811;-74
2021/07/31 10:09:42;;;;;;;4.03;2.30;;;20.60;99.90;;;;;;5085658;28;20453;-75
2021/07/31 10:12:11;;;;;;;6.03;2.30;;;20.60;99.90;;;;;;5092668;28;20543;-75
2021/07/31 10:14:39;;;;;;;3.93;2.10;;;20.50;99.90;;;;;;5086061;28;20570;-75
2021/07/31 10:17:07;;;;;;;3.63;2.00;;;20.50;99.90;;;;;;5087692;28;20552;-76
2021/07/31 10:19:42;;;;;;;2.90;2.03;;;20.50;99.90;;;;;;5093716;28;20443;-74
2021/07/31 10:22:10;;;;;;;2.27;1.80;;;20.50;99.90;;;;;;5089900;28;20823;-75
2021/07/31 10:25:07;;;;;;;2.50;2.03;;;20.50;99.90;;;;;;5093890;28;20951;-73
2021/07/31 10:27:36;;;;;;;5.27;2.10;;;20.50;99.90;;;;;;5088585;28;20478;-73
2021/07/31 10:30:06;;;;;;;3.00;2.13;;;20.50;99.90;;;;;;5095214;28;20939;-74
2021/07/31 10:32:37;;;;;;;3.63;1.60;;;20.60;99.90;;;;;;5101087;28;20478;-73
2021/07/31 10:35:07;;;;;;;3.30;2.50;;;20.50;99.90;;;;;;5106258;28;20472;-73
2021/07/31 10:37:49;;;;;;;4.63;2.80;;;20.60;99.90;;;;;;5086443;28;20542;-74
2021/07/31 10:40:44;;;;;;;3.17;2.17;;;20.70;99.90;;;;;;5093516;28;20465;-72
2021/07/31 10:43:13;;;;;;;5.43;2.30;;;20.80;99.90;;;;;;5090585;28;20457;-73
2021/07/31 10:45:40;;;;;;;2.20;1.87;;;20.90;99.90;;;;;;5085289;28;20455;-73
2021/07/31 10:48:23;;;;;;;4.43;2.00;;;20.90;99.90;;;;;;5093365;28;20435;-72
2021/07/31 10:50:51;;;;;;;3.00;1.97;;;20.90;99.90;;;;;;5097097;28;20454;-73
2021/07/31 10:53:19;;;;;;;3.40;2.07;;;21.00;99.90;;;;;;5111707;28;20959;-73
2021/07/31 10:56:02;;;;;;;2.33;2.07;;;20.90;99.90;;;;;;5087697;28;20467;-72
2021/07/31 10:58:31;;;;;;;2.13;1.70;;;20.90;99.90;;;;;;5075596;28;20419;-73
2021/07/31 11:01:22;;;;;;;3.53;2.23;;;20.90;99.90;;;;;;5101374;28;20461;-73
2021/07/31 11:03:49;;;;;;;2.47;2.03;;;20.90;99.90;;;;;;5114616;28;20453;-72
2021/07/31 11:06:16;;;;;;;3.70;1.97;;;20.80;99.90;;;;;;5090803;28;20451;-72
2021/07/31 11:09:14;;;;;;;3.20;2.50;;;20.80;99.90;;;;;;5095251;28;20470;-72
2021/07/31 11:11:42;;;;;;;2.40;1.90;;;20.80;99.90;;;;;;5077941;28;20833;-72
2021/07/31 11:14:10;;;;;;;3.93;2.00;;;20.80;99.90;;;;;;5085360;28;20490;-72
2021/07/31 11:16:37;;;;;;;2.50;1.77;;;20.80;99.90;;;;;;5083387;28;20639;-72
2021/07/31 11:19:05;;;;;;;6.00;1.93;;;20.90;99.90;;;;;;5087932;28;21149;-72
2021/07/31 11:21:34;;;;;;;3.17;1.73;;;20.90;99.90;;;;;;5085239;28;21046;-72
2021/07/31 11:24:04;;;;;;;3.77;1.80;;;21.00;99.90;;;;;;5092435;28;20450;-72
2021/07/31 11:26:41;;;;;;;2.33;1.90;;;21.00;99.90;;;;;;5084870;28;20803;-73
2021/07/31 11:29:12;;;;;;;1.80;1.70;;;21.10;99.90;;;;;;5092925;28;21052;-72
2021/07/31 11:31:40;;;;;;;2.90;2.10;;;21.10;99.90;;;;;;5086480;28;20494;-72
2021/07/31 11:34:09;;;;;;;2.70;1.90;;;21.20;99.90;;;;;;5087995;28;20488;-72
2021/07/31 11:36:38;;;;;;;1.97;1.77;;;21.20;99.90;;;;;;5080532;28;20936;-72
2021/07/31 11:39:06;;;;;;;3.07;2.00;;;21.20;99.90;;;;;;5085482;28;20432;-72
2021/07/31 11:41:40;;;;;;;4.70;2.30;;;21.30;99.90;;;;;;5080644;28;20487;-73
2021/07/31 11:44:07;;;;;;;2.57;2.27;;;21.40;99.90;;;;;;5089229;28;20492;-71
2021/07/31 11:46:38;;;;;;;3.50;2.30;;;21.50;99.90;;;;;;5093539;28;20446;-72
2021/07/31 11:49:07;;;;;;;3.30;1.80;;;21.60;99.90;;;;;;5099603;28;20447;-72
2021/07/31 11:51:41;;;;;;;4.03;1.80;;;21.80;99.90;;;;;;5101566;28;20469;-73
2021/07/31 11:54:08;;;;;;;3.13;1.70;;;21.90;99.90;;;;;;5093827;28;20516;-72
2021/07/31 11:56:36;;;;;;;2.83;1.80;;;22.00;99.90;;;;;;5089689;28;20454;-72
2021/07/31 11:59:05;;;;;;;3.20;2.07;;;21.90;99.90;;;;;;5086068;28;20814;-72
2021/07/31 12:01:32;;;;;;;3.73;1.90;;;21.80;99.90;;;;;;5089864;28;20802;-73
2021/07/31 12:04:00;;;;;;;2.40;1.80;;;21.80;99.90;;;;;;5086829;28;20440;-73
2021/07/31 12:06:43;;;;;;;2.20;1.83;;;21.80;99.90;;;;;;5076957;28;20535;-73
2021/07/31 12:09:25;;;;;;;2.30;1.70;;;21.70;99.90;;;;;;5079276;28;20462;-73
2021/07/31 12:11:54;;;;;;;1.57;1.47;;;21.60;99.90;;;;;;5087349;28;20983;-72
2021/07/31 12:14:31;;;;;;;5.73;1.87;;;21.60;99.90;;;;;;5088684;28;20486;-73
2021/07/31 12:17:14;;;;;;;2.73;1.90;;;21.60;99.90;;;;;;5095070;28;20978;-73
2021/07/31 12:19:44;;;;;;;2.50;2.10;;;21.50;99.90;;;;;;5066439;28;20465;-73
2021/07/31 12:22:13;;;;;;;2.63;2.03;;;21.50;99.90;;;;;;5090269;28;20470;-73
2021/07/31 12:24:40;;;;;;;2.13;1.93;;;21.50;99.90;;;;;;5087731;28;20446;-73
2021/07/31 12:27:07;;;;;;;2.60;1.87;;;21.50;99.90;;;;;;5086217;28;20830;-74
2021/07/31 12:29:35;;;;;;;2.53;1.90;;;21.50;99.90;;;;;;5092900;28;20466;-73
2021/07/31 12:32:21;;;;;;;2.37;1.97;;;21.60;99.90;;;;;;5099491;28;20469;-73
2021/07/31 12:34:49;;;;;;;2.20;1.80;;;21.70;99.90;;;;;;5086029;28;20858;-73
2021/07/31 12:37:16;;;;;;;4.03;1.90;;;21.80;99.90;;;;;;5083267;28;20463;-73
2021/07/31 12:39:43;;;;;;;3.13;2.07;;;21.90;99.90;;;;;;5087709;28;20484;-73
2021/07/31 12:42:10;;;;;;;2.30;1.80;;;22.00;99.90;;;;;;5095548;28;21017;-73
2021/07/31 12:44:38;;;;;;;2.27;1.73;;;22.00;99.90;;;;;;5110268;27;20791;-73
2021/07/31 12:47:06;;;;;;;3.87;2.20;;;22.10;99.90;;;;;;5089251;27;20805;-73
2021/07/31 12:49:33;;;;;;;2.33;1.80;;;22.20;99.90;;;;;;5128633;27;20993;-74
2021/07/31 12:52:02;;;;;;;3.33;1.80;;;22.20;99.90;;;;;;5109662;28;20450;-75
2021/07/31 12:54:29;;;;;;;2.30;2.10;;;22.20;99.90;;;;;;5100384;27;20963;-75
2021/07/31 12:56:56;;;;;;;2.60;1.80;;;22.30;99.90;;;;;;5107241;27;20954;-75
2021/07/31 12:59:23;;;;;;;3.83;2.30;;;22.30;99.90;;;;;;5112331;28;20804;-75